Time;durP1;ratioP1;P1;durP2;ratioP2;P2;SDS_P1;SDS_P2;PMS_P1;PMS_P2;Temp;Humidity;BMP_temperature;BMP_pressure;BME280_temperature;BME280_humidity;BME280_pressure;Samples;Min_cycle;Max_cycle;Signal;HPM_P1;HPM_P2
2023/05/14 00:01:02;;;;;;;19.08;13.00;;;11.30;99.90;;;;;;5024797;28;20095;-93
2023/05/14 00:03:28;;;;;;;17.98;13.40;;;11.40;99.90;;;;;;5044243;28;20038;-91
2023/05/14 00:05:57;;;;;;;19.35;12.95;;;11.40;99.90;;;;;;5040131;28;20887;-92
2023/05/14 00:08:22;;;;;;;24.30;13.32;;;11.40;99.90;;;;;;5026046;28;20132;-93
2023/05/14 00:10:51;;;;;;;16.38;12.40;;;11.40;99.90;;;;;;5025675;28;20461;-92
2023/05/14 00:13:17;;;;;;;18.95;12.90;;;11.40;99.90;;;;;;5037251;28;20041;-92
2023/05/14 00:15:45;;;;;;;17.27;11.65;;;11.40;99.90;;;;;;5025444;28;20109;-91
2023/05/14 00:18:11;;;;;;;24.33;14.02;;;11.40;99.90;;;;;;5020998;28;20195;-91
2023/05/14 00:20:40;;;;;;;18.48;13.07;;;11.30;99.90;;;;;;5021959;28;20463;-94
2023/05/14 00:23:08;;;;;;;20.75;12.85;;;11.30;99.90;;;;;;5025754;28;20456;-93
2023/05/14 00:25:37;;;;;;;23.27;12.18;;;11.20;99.90;;;;;;5020093;28;20068;-92
2023/05/14 00:28:03;;;;;;;19.42;11.95;;;11.20;99.90;;;;;;5022351;28;20045;-91
2023/05/14 00:30:29;;;;;;;18.70;11.90;;;11.20;99.90;;;;;;5019849;28;20043;-91
2023/05/14 00:32:54;;;;;;;21.88;12.20;;;11.10;99.90;;;;;;5036421;28;20040;-93
2023/05/14 00:35:22;;;;;;;20.23;11.52;;;11.10;99.90;;;;;;5025384;28;20612;-93
2023/05/14 00:37:57;;;;;;;18.92;11.75;;;11.10;99.90;;;;;;5010267;28;20239;-92
2023/05/14 00:40:25;;;;;;;15.98;11.82;;;11.10;99.90;;;;;;5019730;28;20080;-93
2023/05/14 00:42:51;;;;;;;17.38;11.75;;;11.10;99.90;;;;;;5023203;28;20068;-91
2023/05/14 00:45:17;;;;;;;18.23;11.30;;;11.10;99.90;;;;;;5024225;28;20087;-91
2023/05/14 00:47:43;;;;;;;15.00;11.32;;;11.10;99.90;;;;;;5050236;28;20052;-91
2023/05/14 00:50:09;;;;;;;12.98;10.57;;;11.10;99.90;;;;;;5026478;28;20039;-92
2023/05/14 00:52:37;;;;;;;15.65;10.55;;;11.00;99.90;;;;;;5023532;28;20488;-91
2023/05/14 00:55:07;;;;;;;16.63;11.30;;;11.00;99.90;;;;;;5020559;28;20037;-92
2023/05/14 00:57:37;;;;;;;20.77;11.45;;;11.00;99.90;;;;;;5024256;28;20428;-92
2023/05/14 01:00:03;;;;;;;13.68;10.48;;;11.00;99.90;;;;;;5037355;28;20053;-92
2023/05/14 01:02:29;;;;;;;16.92;10.75;;;10.90;99.90;;;;;;5039378;28;20040;-93
2023/05/14 01:04:54;;;;;;;15.43;10.15;;;10.90;99.90;;;;;;5026363;28;20041;-91
2023/05/14 01:07:32;;;;;;;16.65;10.60;;;10.90;99.90;;;;;;5038935;28;20041;-92
2023/05/14 01:10:10;;;;;;;14.32;10.35;;;10.80;99.90;;;;;;5022131;28;20151;-92
2023/05/14 01:13:11;;;;;;;14.68;10.48;;;10.80;99.90;;;;;;5039219;28;20851;-92
2023/05/14 01:15:38;;;;;;;17.60;10.52;;;10.80;99.90;;;;;;5020496;28;20029;-92
2023/05/14 01:18:08;;;;;;;15.93;10.70;;;10.90;99.90;;;;;;5037318;28;20064;-93
2023/05/14 01:20:34;;;;;;;16.00;10.98;;;10.90;99.90;;;;;;5038031;28;20045;-92
2023/05/14 01:23:00;;;;;;;18.92;10.88;;;10.80;99.90;;;;;;5023035;28;20047;-93
2023/05/14 01:25:26;;;;;;;17.20;10.70;;;10.80;99.90;;;;;;5023024;28;20041;-92
2023/05/14 01:28:05;;;;;;;19.88;10.27;;;10.70;99.90;;;;;;5022173;28;20041;-92
2023/05/14 01:30:37;;;;;;;15.35;10.55;;;10.70;99.90;;;;;;5023497;28;20052;-93
2023/05/14 01:33:09;;;;;;;14.20;10.70;;;10.70;99.90;;;;;;5023233;28;20129;-90
2023/05/14 01:35:38;;;;;;;19.20;11.02;;;10.70;99.90;;;;;;5023470;28;20033;-92
2023/05/14 01:38:10;;;;;;;16.70;9.65;;;10.60;99.90;;;;;;5023866;28;20049;-93
2023/05/14 01:40:36;;;;;;;16.42;10.25;;;10.70;99.90;;;;;;5023904;28;20049;-93
2023/05/14 01:43:03;;;;;;;16.20;9.85;;;10.60;99.90;;;;;;5038774;28;20044;-93
2023/05/14 01:45:34;;;;;;;19.00;10.65;;;10.70;99.90;;;;;;5024129;28;20479;-92
2023/05/14 01:48:00;;;;;;;17.65;10.25;;;10.70;99.90;;;;;;5024105;28;20040;-93
2023/05/14 01:50:25;;;;;;;18.48;10.15;;;10.70;99.90;;;;;;5024063;28;20995;-93
2023/05/14 01:52:55;;;;;;;15.88;9.73;;;10.70;99.90;;;;;;5025654;28;20040;-91
2023/05/14 01:55:21;;;;;;;17.08;11.25;;;10.80;99.90;;;;;;5023484;28;20072;-92
2023/05/14 01:57:47;;;;;;;15.00;10.00;;;10.80;99.90;;;;;;5037482;28;20048;-92
2023/05/14 02:00:12;;;;;;;20.27;10.80;;;10.80;99.90;;;;;;5023112;28;20029;-93
2023/05/14 02:02:41;;;;;;;14.00;10.60;;;10.80;99.90;;;;;;5033078;28;20534;-91
2023/05/14 02:05:08;;;;;;;13.93;10.13;;;10.80;99.90;;;;;;5038628;28;20202;-92
2023/05/14 02:07:33;;;;;;;16.52;10.48;;;10.70;99.90;;;;;;5023777;28;20055;-91
2023/05/14 02:10:02;;;;;;;20.42;10.77;;;10.60;99.90;;;;;;5021173;28;20385;-91
2023/05/14 02:12:28;;;;;;;15.57;10.07;;;10.60;99.90;;;;;;5020928;28;20087;-91
2023/05/14 02:14:57;;;;;;;16.85;11.85;;;10.50;99.90;;;;;;5023574;28;20049;-92
2023/05/14 02:17:24;;;;;;;18.73;11.63;;;10.50;99.90;;;;;;5034829;28;20072;-91
2023/05/14 02:19:50;;;;;;;19.35;11.63;;;10.50;99.90;;;;;;5024255;28;20048;-92
2023/05/14 02:22:16;;;;;;;18.75;11.82;;;10.40;99.90;;;;;;5022857;28;20037;-92
2023/05/14 02:24:41;;;;;;;19.40;12.45;;;10.50;99.90;;;;;;5035266;28;20055;-91
2023/05/14 02:27:16;;;;;;;18.95;11.55;;;10.50;99.90;;;;;;5023531;28;20102;-91
2023/05/14 02:29:42;;;;;;;22.02;12.32;;;10.40;99.90;;;;;;5034639;28;20045;-92
2023/05/14 02:32:07;;;;;;;19.13;12.15;;;10.50;99.90;;;;;;5021866;28;20037;-91
2023/05/14 02:34:33;;;;;;;20.73;11.85;;;10.70;99.90;;;;;;5024187;28;20457;-93
2023/05/14 02:36:59;;;;;;;18.75;11.50;;;10.60;99.90;;;;;;5022684;28;20045;-91
2023/05/14 02:39:25;;;;;;;19.08;11.75;;;10.60;99.90;;;;;;5023076;28;20049;-91
2023/05/14 02:41:53;;;;;;;20.02;11.13;;;10.50;99.90;;;;;;5020959;28;20144;-91
2023/05/14 02:44:19;;;;;;;17.55;11.10;;;10.60;99.90;;;;;;5018362;28;20032;-93
2023/05/14 02:46:48;;;;;;;19.55;11.25;;;10.60;99.90;;;;;;5023210;28;20039;-91
2023/05/14 02:49:13;;;;;;;14.13;10.65;;;10.60;99.90;;;;;;5025427;28;20059;-92
2023/05/14 02:51:39;;;;;;;19.80;11.13;;;10.60;99.90;;;;;;5025326;28;20110;-91
2023/05/14 02:54:05;;;;;;;18.75;11.15;;;10.50;99.90;;;;;;5022852;28;20075;-91
2023/05/14 02:56:33;;;;;;;21.02;11.52;;;10.50;99.90;;;;;;5020354;28;20074;-90
2023/05/14 02:58:59;;;;;;;21.67;11.02;;;10.50;99.90;;;;;;5014292;28;20033;-91
2023/05/14 03:01:25;;;;;;;21.17;11.90;;;10.50;99.90;;;;;;5024380;28;20088;-92
2023/05/14 03:03:50;;;;;;;21.17;12.90;;;10.50;99.90;;;;;;5023092;28;20049;-91
2023/05/14 03:06:16;;;;;;;18.15;11.02;;;10.50;99.90;;;;;;5023963;28;20041;-93
2023/05/14 03:08:41;;;;;;;18.52;11.57;;;10.40;99.90;;;;;;5031488;28;20037;-91
2023/05/14 03:11:07;;;;;;;15.80;10.73;;;10.40;99.90;;;;;;5023504;28;20045;-91
2023/05/14 03:13:32;;;;;;;16.55;11.75;;;10.40;99.90;;;;;;5031242;28;20048;-92
2023/05/14 03:16:01;;;;;;;25.70;12.13;;;10.40;99.90;;;;;;5036995;28;20044;-92
2023/05/14 03:18:29;;;;;;;25.40;11.35;;;10.40;99.90;;;;;;5026463;28;20371;-91
2023/05/14 03:20:55;;;;;;;19.23;10.90;;;10.40;99.90;;;;;;5026391;28;20033;-91
2023/05/14 03:23:21;;;;;;;19.10;11.52;;;10.50;99.90;;;;;;5023690;28;20041;-92
2023/05/14 03:25:49;;;;;;;18.00;10.93;;;10.40;99.90;;;;;;5024995;28;20108;-93
2023/05/14 03:28:15;;;;;;;17.05;11.30;;;10.40;99.90;;;;;;5025648;28;20037;-91
2023/05/14 03:30:41;;;;;;;21.08;11.55;;;10.40;99.90;;;;;;5027661;28;20040;-90
2023/05/14 03:33:06;;;;;;;20.75;11.55;;;10.40;99.90;;;;;;5028063;28;20403;-91
2023/05/14 03:35:32;;;;;;;20.10;11.30;;;10.50;99.90;;;;;;5024562;28;20261;-91
2023/05/14 03:38:00;;;;;;;18.52;11.57;;;10.50;99.90;;;;;;5025906;28;20050;-90
2023/05/14 03:40:26;;;;;;;19.75;11.52;;;10.50;99.90;;;;;;5026648;28;20554;-91
2023/05/14 03:42:51;;;;;;;18.90;12.05;;;10.50;99.90;;;;;;5026279;28;20605;-93
2023/05/14 03:45:17;;;;;;;17.95;10.95;;;10.50;99.90;;;;;;5032914;28;20045;-92
2023/05/14 03:47:43;;;;;;;21.27;11.95;;;10.50;99.90;;;;;;5039388;28;20037;-92
2023/05/14 03:50:08;;;;;;;22.70;12.23;;;10.50;99.90;;;;;;5025187;28;20437;-90
2023/05/14 03:52:34;;;;;;;17.58;11.43;;;10.40;99.90;;;;;;5026404;28;20143;-91
2023/05/14 03:55:00;;;;;;;20.23;12.10;;;10.30;99.90;;;;;;5035980;28;20033;-91
2023/05/14 03:57:25;;;;;;;15.43;10.77;;;10.30;99.90;;;;;;5037418;28;20849;-91
2023/05/14 03:59:51;;;;;;;24.20;12.45;;;10.30;99.90;;;;;;5036859;28;20041;-90
2023/05/14 04:02:16;;;;;;;20.15;10.82;;;10.30;99.90;;;;;;5025276;28;20033;-91
2023/05/14 04:04:42;;;;;;;20.67;12.20;;;10.30;99.90;;;;;;5022296;28;20467;-92
2023/05/14 04:07:08;;;;;;;21.20;12.32;;;10.30;99.90;;;;;;5024880;28;20041;-92
2023/05/14 04:09:33;;;;;;;23.73;13.13;;;10.40;99.90;;;;;;5025628;28;20128;-91
2023/05/14 04:11:59;;;;;;;22.13;12.23;;;10.40;99.90;;;;;;5026020;28;20045;-92
2023/05/14 04:14:25;;;;;;;25.08;14.23;;;10.50;99.90;;;;;;5022152;28;20053;-92
2023/05/14 04:16:50;;;;;;;27.83;14.20;;;10.60;99.90;;;;;;5027147;28;20041;-92
2023/05/14 04:19:16;;;;;;;39.63;15.43;;;10.70;99.90;;;;;;5024829;28;20048;-92
2023/05/14 04:21:42;;;;;;;26.27;15.00;;;10.70;99.90;;;;;;5025840;28;20035;-91
2023/05/14 04:24:14;;;;;;;29.88;14.57;;;10.70;99.90;;;;;;5023900;28;20037;-91
2023/05/14 04:26:40;;;;;;;28.15;15.23;;;10.70;99.90;;;;;;5041381;28;20040;-90
2023/05/14 04:29:05;;;;;;;28.58;14.75;;;10.70;99.90;;;;;;5024911;28;20048;-92
2023/05/14 04:31:33;;;;;;;38.45;15.68;;;10.80;99.90;;;;;;5039071;28;20133;-92
2023/05/14 04:33:59;;;;;;;27.63;14.65;;;10.80;99.90;;;;;;5026181;28;20124;-90
2023/05/14 04:36:25;;;;;;;25.52;14.63;;;10.90;99.90;;;;;;5040205;28;20132;-92
2023/05/14 04:38:51;;;;;;;30.35;14.88;;;10.90;99.90;;;;;;5023038;28;20079;-91
2023/05/14 04:41:16;;;;;;;28.75;14.00;;;10.90;99.90;;;;;;5021254;28;20080;-93
2023/05/14 04:43:45;;;;;;;25.30;14.13;;;11.00;99.90;;;;;;5023711;28;20055;-92
2023/05/14 04:46:12;;;;;;;30.60;15.10;;;11.00;99.90;;;;;;5024414;28;20096;-91
2023/05/14 04:48:41;;;;;;;27.38;13.80;;;11.00;99.90;;;;;;5025676;28;20055;-92
2023/05/14 04:51:06;;;;;;;27.52;13.88;;;11.10;99.90;;;;;;5025541;28;20400;-91
2023/05/14 04:53:32;;;;;;;22.10;13.95;;;11.10;99.90;;;;;;5023564;28;20045;-91
2023/05/14 04:55:58;;;;;;;24.20;13.43;;;11.10;99.90;;;;;;5033852;28;20049;-91
2023/05/14 04:58:23;;;;;;;25.63;13.15;;;11.20;99.90;;;;;;5020907;28;20039;-91
2023/05/14 05:00:58;;;;;;;23.42;13.15;;;11.20;99.90;;;;;;5024223;28;20045;-90
2023/05/14 05:03:24;;;;;;;27.70;14.85;;;11.20;99.90;;;;;;5018473;28;20198;-92
2023/05/14 05:05:50;;;;;;;26.63;13.55;;;11.20;99.90;;;;;;5024322;28;20143;-92
2023/05/14 05:08:16;;;;;;;29.23;13.60;;;11.20;99.90;;;;;;5024710;28;20052;-91
2023/05/14 05:10:44;;;;;;;28.17;13.75;;;11.40;99.90;;;;;;5018207;28;20048;-92
2023/05/14 05:13:10;;;;;;;29.23;15.05;;;11.40;99.90;;;;;;5019872;28;20055;-93
2023/05/14 05:15:35;;;;;;;31.02;14.73;;;11.40;99.90;;;;;;5022886;28;20078;-91
2023/05/14 05:18:01;;;;;;;30.02;14.98;;;11.50;99.90;;;;;;5024377;28;20098;-92
2023/05/14 05:20:27;;;;;;;27.40;15.18;;;11.50;99.90;;;;;;5037365;28;20044;-91
2023/05/14 05:22:52;;;;;;;25.60;14.43;;;11.60;99.90;;;;;;5023814;28;20033;-91
2023/05/14 05:25:21;;;;;;;23.30;12.98;;;11.70;99.90;;;;;;5023508;28;20041;-93
2023/05/14 05:27:52;;;;;;;25.40;14.63;;;11.70;99.90;;;;;;5033603;28;20554;-91
2023/05/14 05:30:18;;;;;;;28.42;13.85;;;11.80;99.90;;;;;;5036793;28;20053;-91
2023/05/14 05:32:44;;;;;;;25.08;13.40;;;11.90;99.90;;;;;;5021761;28;20068;-91
2023/05/14 05:35:13;;;;;;;28.00;13.55;;;12.00;99.90;;;;;;5023899;28;20050;-92
2023/05/14 05:37:38;;;;;;;20.88;13.15;;;12.10;99.90;;;;;;5034766;28;20037;-92
2023/05/14 05:40:08;;;;;;;26.00;12.68;;;12.10;99.90;;;;;;5023990;28;20049;-92
2023/05/14 05:42:33;;;;;;;27.73;13.20;;;12.20;99.90;;;;;;5037724;28;20060;-92
2023/05/14 05:44:59;;;;;;;27.27;13.30;;;12.30;99.90;;;;;;5025429;28;20259;-93
2023/05/14 05:47:24;;;;;;;26.98;12.43;;;12.40;99.90;;;;;;5025206;28;20416;-92
2023/05/14 05:49:53;;;;;;;21.85;11.98;;;12.50;99.90;;;;;;5020929;28;20346;-93
2023/05/14 05:52:18;;;;;;;30.85;12.95;;;12.60;99.90;;;;;;5032792;28;20080;-93
2023/05/14 05:54:44;;;;;;;22.75;11.52;;;12.80;99.90;;;;;;5020469;28;20064;-93
2023/05/14 05:57:10;;;;;;;31.45;12.50;;;12.80;99.90;;;;;;5023405;28;20072;-93
2023/05/14 05:59:36;;;;;;;26.92;12.40;;;13.00;99.90;;;;;;5023339;28;20037;-92
2023/05/14 06:02:01;;;;;;;21.58;10.82;;;13.10;99.90;;;;;;5023456;28;20037;-94
2023/05/14 06:04:27;;;;;;;16.13;10.38;;;13.20;99.90;;;;;;5025730;28;20056;-92
2023/05/14 06:06:53;;;;;;;22.55;11.27;;;13.40;99.90;;;;;;5022584;28;20109;-94
2023/05/14 06:09:21;;;;;;;18.60;9.93;;;13.60;99.90;;;;;;5025726;28;20059;-92
2023/05/14 06:11:47;;;;;;;22.05;10.25;;;13.40;99.90;;;;;;5037220;28;20040;-94
2023/05/14 06:14:13;;;;;;;20.73;11.15;;;13.70;99.90;;;;;;5023500;28;20476;-92
2023/05/14 06:16:38;;;;;;;18.80;9.85;;;13.60;99.90;;;;;;5023871;28;20460;-93
2023/05/14 06:19:05;;;;;;;16.95;9.82;;;13.80;99.90;;;;;;5023970;28;20039;-94
2023/05/14 06:21:30;;;;;;;26.30;10.57;;;14.10;99.90;;;;;;5036353;28;20034;-92
2023/05/14 06:23:56;;;;;;;23.13;10.13;;;14.30;99.90;;;;;;5023851;28;20197;-93
2023/05/14 06:26:22;;;;;;;17.77;9.05;;;14.30;99.90;;;;;;5022176;28;20052;-92
2023/05/14 06:28:51;;;;;;;23.58;9.80;;;14.20;99.90;;;;;;5020882;28;20041;-93
2023/05/14 06:31:17;;;;;;;16.23;9.23;;;14.10;99.90;;;;;;5022728;28;20048;-93
2023/05/14 06:33:45;;;;;;;21.55;9.10;;;14.10;99.90;;;;;;5025184;28;20498;-94
2023/05/14 06:36:11;;;;;;;20.23;9.18;;;14.00;99.90;;;;;;5019931;28;20460;-93
2023/05/14 06:38:37;;;;;;;19.08;8.93;;;14.10;99.90;;;;;;5021531;28;20056;-93
2023/05/14 06:41:05;;;;;;;15.10;8.35;;;14.30;99.90;;;;;;5021536;28;20037;-92
2023/05/14 06:43:31;;;;;;;21.63;8.60;;;14.30;99.90;;;;;;5025876;28;20231;-94
2023/05/14 06:46:00;;;;;;;14.80;8.73;;;14.40;99.90;;;;;;5025054;28;20045;-92
2023/05/14 06:48:29;;;;;;;18.88;9.02;;;14.10;99.90;;;;;;5028025;28;20076;-93
2023/05/14 06:50:55;;;;;;;21.10;9.52;;;14.10;99.90;;;;;;5041057;28;20049;-93
2023/05/14 06:53:21;;;;;;;21.95;10.02;;;14.40;99.90;;;;;;5027340;28;20516;-92
2023/05/14 06:55:47;;;;;;;17.95;8.93;;;14.50;99.90;;;;;;5026156;28;20050;-93
2023/05/14 06:58:13;;;;;;;22.25;9.38;;;14.40;99.90;;;;;;5025614;28;20045;-93
2023/05/14 07:00:39;;;;;;;18.77;10.25;;;14.40;99.90;;;;;;5027289;28;20037;-91
2023/05/14 07:03:07;;;;;;;16.70;9.23;;;14.60;99.90;;;;;;5026866;28;20038;-93
2023/05/14 07:05:33;;;;;;;22.08;9.10;;;14.70;99.90;;;;;;5025282;28;20444;-93
2023/05/14 07:07:59;;;;;;;19.80;8.82;;;14.90;99.90;;;;;;5024185;28;20049;-93
2023/05/14 07:10:27;;;;;;;13.70;7.03;;;15.00;99.90;;;;;;5039930;28;20123;-93
2023/05/14 07:12:53;;;;;;;17.38;8.35;;;15.30;99.90;;;;;;5034416;28;20036;-92
2023/05/14 07:15:20;;;;;;;17.65;7.75;;;15.30;99.90;;;;;;5028915;28;20456;-93
2023/05/14 07:17:45;;;;;;;15.88;7.35;;;15.80;99.90;;;;;;5028312;28;20087;-93
2023/05/14 07:20:11;;;;;;;16.08;7.53;;;15.60;99.90;;;;;;5028302;28;20072;-94
2023/05/14 07:22:37;;;;;;;14.70;7.97;;;15.80;99.90;;;;;;5027361;28;20082;-94
2023/05/14 07:25:03;;;;;;;13.50;7.93;;;15.80;99.90;;;;;;5025591;28;20036;-93
2023/05/14 07:27:28;;;;;;;14.98;7.40;;;15.60;99.90;;;;;;5026809;28;20164;-92
2023/05/14 07:29:54;;;;;;;13.43;7.50;;;16.00;99.90;;;;;;5028916;28;20102;-93
2023/05/14 07:32:20;;;;;;;13.82;7.47;;;16.20;99.90;;;;;;5035339;28;20076;-94
2023/05/14 07:34:45;;;;;;;15.10;7.03;;;16.40;99.90;;;;;;5039022;28;20033;-93
2023/05/14 07:37:11;;;;;;;15.55;7.28;;;16.30;99.90;;;;;;5030191;28;20474;-94
2023/05/14 07:39:37;;;;;;;12.73;7.15;;;16.50;99.90;;;;;;5041567;28;20052;-93
2023/05/14 07:42:03;;;;;;;12.45;7.32;;;16.30;99.90;;;;;;5025659;28;20045;-93
2023/05/14 07:44:29;;;;;;;13.27;6.78;;;16.20;99.90;;;;;;5026463;28;20038;-92
2023/05/14 07:46:58;;;;;;;11.40;6.30;;;16.10;99.90;;;;;;5027818;28;20060;-94
2023/05/14 07:49:23;;;;;;;11.43;7.07;;;16.40;99.90;;;;;;5040593;28;20051;-93
2023/05/14 07:51:49;;;;;;;11.98;6.97;;;16.30;99.90;;;;;;5026556;28;20036;-94
2023/05/14 07:54:15;;;;;;;15.20;7.05;;;16.40;99.90;;;;;;5025767;28;20054;-94
2023/05/14 07:56:41;;;;;;;13.63;7.07;;;16.60;99.90;;;;;;5024769;28;20118;-93
2023/05/14 07:59:12;;;;;;;14.57;7.10;;;16.40;99.90;;;;;;5024673;28;20037;-93
2023/05/14 08:01:38;;;;;;;13.75;7.05;;;16.60;99.90;;;;;;5024834;28;20472;-94
2023/05/14 08:04:04;;;;;;;10.70;6.50;;;16.60;99.90;;;;;;5026012;28;20128;-92
2023/05/14 08:06:30;;;;;;;18.08;7.18;;;16.60;99.90;;;;;;5028798;28;20045;-93
2023/05/14 08:08:55;;;;;;;11.32;6.53;;;16.80;99.90;;;;;;5028734;28;20037;-93
2023/05/14 08:11:21;;;;;;;12.27;6.50;;;16.50;99.90;;;;;;5027592;28;20045;-93
2023/05/14 08:13:47;;;;;;;13.25;6.43;;;16.90;99.90;;;;;;5028345;28;20044;-93
2023/05/14 08:16:12;;;;;;;13.05;6.75;;;17.10;99.90;;;;;;5026582;28;20133;-92
2023/05/14 08:18:43;;;;;;;12.10;6.72;;;17.20;99.90;;;;;;5032144;28;20539;-92
2023/05/14 08:21:09;;;;;;;17.38;7.22;;;17.00;99.90;;;;;;5024379;28;20076;-93
2023/05/14 08:23:35;;;;;;;16.55;6.43;;;17.00;99.90;;;;;;5024645;28;20191;-94
2023/05/14 08:26:01;;;;;;;15.32;7.07;;;17.40;99.90;;;;;;5027996;28;20322;-92
2023/05/14 08:28:27;;;;;;;12.02;6.40;;;17.50;99.90;;;;;;5027326;28;20036;-94
2023/05/14 08:30:53;;;;;;;13.73;6.95;;;17.20;99.90;;;;;;5025402;28;20438;-93
2023/05/14 08:33:22;;;;;;;16.02;6.90;;;17.60;99.90;;;;;;5024593;28;20068;-93
2023/05/14 08:35:57;;;;;;;12.32;7.07;;;17.80;99.90;;;;;;5041370;28;20041;-92
2023/05/14 08:38:25;;;;;;;12.90;6.45;;;17.50;99.90;;;;;;5027593;28;20060;-94
2023/05/14 08:40:57;;;;;;;12.70;6.50;;;17.80;99.90;;;;;;5026968;28;20052;-93
2023/05/14 08:43:53;;;;;;;16.50;7.28;;;18.10;99.90;;;;;;5026489;28;20034;-93
2023/05/14 08:46:22;;;;;;;10.82;6.82;;;18.40;99.90;;;;;;4991950;28;20053;-94
2023/05/14 08:48:56;;;;;;;11.38;6.18;;;18.50;99.90;;;;;;5028294;28;20583;-94
2023/05/14 08:51:22;;;;;;;14.73;6.75;;;18.70;99.90;;;;;;5041226;28;20141;-93
2023/05/14 08:53:54;;;;;;;13.18;6.88;;;18.60;99.90;;;;;;5024349;28;20424;-94
2023/05/14 08:56:21;;;;;;;16.48;8.10;;;18.70;99.90;;;;;;5039637;28;20051;-94
2023/05/14 08:58:50;;;;;;;11.13;7.07;;;18.80;99.90;;;;;;5027252;28;20151;-93
2023/05/14 09:01:17;;;;;;;10.70;7.88;;;18.60;99.90;;;;;;5042039;28;20044;-94
2023/05/14 09:03:46;;;;;;;11.48;7.85;;;18.80;99.90;;;;;;5022657;28;20066;-94
2023/05/14 09:06:13;;;;;;;11.07;7.18;;;18.80;99.90;;;;;;5034441;28;20044;-93
2023/05/14 09:08:41;;;;;;;10.95;6.95;;;18.50;99.90;;;;;;5026577;28;20041;-93
2023/05/14 09:11:08;;;;;;;11.68;6.78;;;18.50;99.90;;;;;;5039817;28;20040;-93
2023/05/14 09:13:37;;;;;;;14.75;7.47;;;18.90;99.90;;;;;;5041434;28;20086;-94
2023/05/14 09:16:03;;;;;;;9.73;6.22;;;19.20;99.90;;;;;;5025310;28;20052;-93
2023/05/14 09:18:29;;;;;;;12.68;7.40;;;19.10;99.90;;;;;;5027283;28;20044;-93
2023/05/14 09:20:58;;;;;;;13.00;6.80;;;19.40;99.90;;;;;;5029581;28;20035;-95
2023/05/14 09:23:32;;;;;;;13.93;6.68;;;19.50;99.90;;;;;;5045294;28;20037;-94
2023/05/14 09:25:57;;;;;;;12.30;6.78;;;19.60;99.90;;;;;;5026294;28;20044;-95
2023/05/14 09:28:26;;;;;;;12.63;6.70;;;18.80;99.90;;;;;;5028141;28;20056;-93
2023/05/14 09:30:53;;;;;;;10.93;6.82;;;19.00;99.90;;;;;;5029280;28;20052;-94
2023/05/14 09:33:28;;;;;;;9.50;6.88;;;19.20;99.90;;;;;;5028564;28;20044;-94
2023/05/14 09:35:57;;;;;;;;;;;18.80;99.90;;;;;;5020237;28;20041;-89
2023/05/14 09:38:29;;;;;;;11.35;6.68;;;19.50;99.90;;;;;;5052202;28;19933;-94
2023/05/14 09:40:56;;;;;;;11.77;6.43;;;19.90;99.90;;;;;;5017530;28;20116;-88
2023/05/14 09:43:22;;;;;;;9.20;6.10;;;19.90;99.90;;;;;;5035098;28;20456;-87
2023/05/14 09:45:48;;;;;;;10.52;7.22;;;20.10;99.90;;;;;;5021449;28;20041;-87
2023/05/14 09:48:13;;;;;;;14.95;6.97;;;20.20;99.90;;;;;;5018937;28;20040;-88
2023/05/14 09:50:45;;;;;;;12.75;6.32;;;20.50;99.90;;;;;;5033831;28;20167;-85
2023/05/14 09:53:13;;;;;;;11.45;6.50;;;20.70;99.90;;;;;;5015886;28;20611;-88
2023/05/14 09:55:42;;;;;;;11.70;5.45;;;20.60;99.90;;;;;;5015498;28;20052;-87
2023/05/14 09:58:07;;;;;;;11.70;6.07;;;20.90;99.90;;;;;;5018258;28;20079;-84
2023/05/14 10:00:34;;;;;;;8.57;5.90;;;20.80;99.90;;;;;;5019663;28;20033;-84
2023/05/14 10:03:05;;;;;;;9.93;5.60;;;20.70;44.30;;;;;;5017460;28;20403;-85
2023/05/14 10:05:37;;;;;;;9.90;5.70;;;21.00;99.90;;;;;;5036357;28;20476;-85
2023/05/14 10:08:11;;;;;;;11.35;6.90;;;21.30;99.90;;;;;;5022247;28;20120;-84
2023/05/14 10:10:37;;;;;;;16.58;6.68;;;20.50;99.90;;;;;;5016676;28;20041;-85
2023/05/14 10:13:06;;;;;;;10.95;6.50;;;20.40;7.40;;;;;;5018848;28;20034;-85
2023/05/14 10:16:01;;;;;;;6.75;5.80;;;20.50;1.00;;;;;;5032606;28;20140;-84
2023/05/14 10:18:30;;;;;;;9.13;6.60;;;21.50;99.90;;;;;;5017159;28;20033;-84
2023/05/14 10:21:06;;;;;;;10.20;6.68;;;21.30;13.90;;;;;;5034931;28;20143;-84
2023/05/14 10:23:33;;;;;;;13.27;6.57;;;21.20;99.90;;;;;;5020933;28;20029;-85
2023/05/14 10:26:00;;;;;;;10.20;6.25;;;21.40;99.90;;;;;;5033674;28;20041;-84
2023/05/14 10:28:26;;;;;;;9.63;6.80;;;21.60;99.90;;;;;;5021228;28;20464;-85
2023/05/14 10:30:53;;;;;;;11.40;6.38;;;22.10;99.90;;;;;;5034933;28;20140;-85
2023/05/14 10:33:22;;;;;;;10.85;7.15;;;22.20;99.90;;;;;;5037404;28;20033;-85
2023/05/14 10:35:59;;;;;;;11.50;8.10;;;21.80;99.90;;;;;;5020654;28;20361;-84
2023/05/14 10:38:32;;;;;;;13.07;7.68;;;21.50;1.00;;;;;;5031945;28;20445;-85
2023/05/14 10:41:21;;;;;;;11.10;7.63;;;21.50;99.90;;;;;;5030767;28;20120;-84
2023/05/14 10:43:47;;;;;;;12.18;7.35;;;21.40;1.00;;;;;;5035614;28;20777;-84
2023/05/14 10:46:13;;;;;;;10.10;7.38;;;21.40;1.00;;;;;;5023626;28;20038;-84
2023/05/14 10:48:42;;;;;;;10.55;8.18;;;21.60;99.90;;;;;;5019667;28;20130;-84
2023/05/14 10:51:16;;;;;;;14.60;9.20;;;21.50;81.20;;;;;;5035848;28;20530;-84
2023/05/14 10:53:42;;;;;;;14.65;8.48;;;20.60;99.90;;;;;;5024091;28;20045;-84
2023/05/14 10:56:13;;;;;;;14.38;8.18;;;21.20;99.90;;;;;;5019559;28;20052;-84
2023/05/14 10:58:43;;;;;;;12.48;8.23;;;21.70;99.90;;;;;;5034507;28;20041;-84
2023/05/14 11:01:12;;;;;;;12.25;8.25;;;21.90;1.00;;;;;;5023061;28;20033;-84
2023/05/14 11:03:43;;;;;;;11.93;9.20;;;21.50;99.90;;;;;;5032286;28;20156;-83
2023/05/14 11:06:11;;;;;;;11.27;8.68;;;21.00;99.90;;;;;;5018963;28;20138;-83
2023/05/14 11:08:37;;;;;;;11.02;8.00;;;21.10;99.90;;;;;;5022022;28;20105;-84
2023/05/14 11:11:02;;;;;;;11.32;7.97;;;21.60;99.90;;;;;;5022102;28;20124;-84
2023/05/14 11:13:29;;;;;;;10.48;7.57;;;22.20;99.90;;;;;;5035291;28;20127;-84
2023/05/14 11:15:55;;;;;;;10.98;7.50;;;22.30;1.00;;;;;;5028827;28;20135;-84
2023/05/14 11:18:29;;;;;;;9.60;6.97;;;22.30;99.90;;;;;;5023841;28;20053;-83
2023/05/14 11:20:59;;;;;;;9.05;6.65;;;21.70;99.90;;;;;;5025412;28;20479;-83
2023/05/14 11:23:26;;;;;;;12.85;6.10;;;21.60;99.90;;;;;;5035574;28;20522;-84
2023/05/14 11:25:53;;;;;;;11.40;6.70;;;21.60;99.90;;;;;;5035035;28;20151;-84
2023/05/14 11:28:24;;;;;;;12.82;6.72;;;21.70;99.90;;;;;;5022301;28;20395;-83
2023/05/14 11:30:53;;;;;;;10.35;5.25;;;21.40;99.90;;;;;;5036482;28;20440;-84
2023/05/14 11:33:19;;;;;;;10.20;5.00;;;21.30;99.90;;;;;;5027467;28;20037;-84
2023/05/14 11:35:47;;;;;;;8.40;5.10;;;22.00;1.00;;;;;;5022488;28;20049;-83
2023/05/14 11:38:21;;;;;;;9.30;5.03;;;22.50;99.90;;;;;;5015927;28;20050;-84
2023/05/14 11:40:55;;;;;;;7.57;4.70;;;22.40;99.90;;;;;;5012058;28;20032;-84
2023/05/14 11:43:22;;;;;;;5.28;3.83;;;22.80;99.90;;;;;;5022319;28;20041;-84
2023/05/14 11:45:52;;;;;;;6.82;4.20;;;23.60;99.90;;;;;;5017115;28;20037;-83
2023/05/14 11:48:18;;;;;;;4.90;3.50;;;23.70;99.90;;;;;;5029078;28;20179;-84
2023/05/14 11:50:49;;;;;;;7.20;4.47;;;23.90;99.90;;;;;;5023534;28;20098;-84
2023/05/14 11:53:24;;;;;;;7.82;4.07;;;23.40;20.20;;;;;;5030695;28;20043;-83
2023/05/14 11:55:49;;;;;;;7.47;3.97;;;23.20;1.00;;;;;;5029086;28;20041;-84
2023/05/14 11:58:17;;;;;;;10.48;3.85;;;23.30;1.00;;;;;;5020121;28;20095;-84
2023/05/14 12:00:44;;;;;;;5.25;3.53;;;23.20;1.00;;;;;;5021086;28;20045;-84
2023/05/14 12:03:11;;;;;;;6.93;3.88;;;23.70;1.00;;;;;;5035366;28;20073;-84
2023/05/14 12:05:38;;;;;;;9.20;4.60;;;23.30;99.90;;;;;;5023333;28;20052;-84
2023/05/14 12:08:22;;;;;;;5.18;3.97;;;23.20;99.90;;;;;;5038771;28;20049;-83
2023/05/14 12:10:47;;;;;;;8.18;4.25;;;23.90;99.90;;;;;;5013961;28;20130;-83
2023/05/14 12:13:17;;;;;;;8.55;4.10;;;23.60;99.90;;;;;;5036812;28;20439;-83
2023/05/14 12:16:01;;;;;;;6.45;3.85;;;24.50;99.90;;;;;;5019387;28;20041;-84
2023/05/14 12:18:29;;;;;;;4.47;3.42;;;24.60;99.90;;;;;;5019769;28;20045;-84
2023/05/14 12:21:00;;;;;;;5.28;3.70;;;24.30;99.90;;;;;;5033945;28;20207;-83
2023/05/14 12:23:29;;;;;;;6.05;3.88;;;25.00;99.90;;;;;;5019057;28;20056;-83
2023/05/14 12:26:00;;;;;;;5.40;4.07;;;24.50;99.90;;;;;;5029486;28;20146;-83
2023/05/14 12:28:28;;;;;;;7.80;4.22;;;23.70;99.90;;;;;;5020418;28;20033;-83
2023/05/14 12:30:58;;;;;;;8.02;3.90;;;22.90;99.90;;;;;;5031577;28;20485;-84
2023/05/14 12:33:27;;;;;;;6.32;3.40;;;23.10;99.90;;;;;;5021764;28;20041;-84
2023/05/14 12:35:56;;;;;;;5.22;3.45;;;23.80;99.90;;;;;;5031611;28;20075;-84